Time;durP1;ratioP1;P1;durP2;ratioP2;P2;SDS_P1;SDS_P2;PMS_P1;PMS_P2;Temp;Humidity;BMP_temperature;BMP_pressure;BME280_temperature;BME280_humidity;BME280_pressure;Samples;Min_cycle;Max_cycle;Signal;HPM_P1;HPM_P2
2023/07/30 00:00:33;;;;;;;9.70;3.30;;;;;;;13.98;100.00;100920.75;4993385;28;20033;-81
2023/07/30 00:02:58;;;;;;;11.32;3.88;;;;;;;13.91;100.00;100911.75;4993224;28;20023;-82
2023/07/30 00:05:24;;;;;;;8.00;3.33;;;;;;;13.85;100.00;100904.41;4993135;28;20434;-81
2023/07/30 00:07:49;;;;;;;8.10;3.60;;;;;;;13.71;100.00;100897.69;4993361;28;20030;-82
2023/07/30 00:10:15;;;;;;;10.50;3.92;;;;;;;13.86;100.00;100916.44;4993086;28;20037;-81
2023/07/30 00:12:41;;;;;;;9.70;3.95;;;;;;;13.72;100.00;100899.34;4992998;28;20373;-82
2023/07/30 00:15:07;;;;;;;8.82;3.60;;;;;;;13.91;100.00;100928.16;4993169;28;20027;-82
2023/07/30 00:17:32;;;;;;;9.52;3.55;;;;;;;13.88;100.00;100928.41;4993143;28;20030;-82
2023/07/30 00:19:58;;;;;;;8.90;3.30;;;;;;;13.75;100.00;100904.28;4993014;28;20042;-82
2023/07/30 00:22:23;;;;;;;8.15;3.63;;;;;;;13.81;100.00;100910.78;4993032;28;20540;-82
2023/07/30 00:24:48;;;;;;;7.35;3.20;;;;;;;13.70;100.00;100890.84;4992894;28;20030;-81
2023/07/30 00:27:14;;;;;;;11.05;3.58;;;;;;;13.82;100.00;100923.66;4992807;28;20030;-82
2023/07/30 00:29:39;;;;;;;7.80;3.33;;;;;;;13.84;100.00;100926.97;4993132;28;20113;-81
2023/07/30 00:32:05;;;;;;;10.88;3.50;;;;;;;13.81;100.00;100926.38;4993194;28;20053;-83
2023/07/30 00:34:30;;;;;;;7.20;3.00;;;;;;;13.63;100.00;100906.03;4992759;28;20030;-82
2023/07/30 00:36:55;;;;;;;9.50;3.47;;;;;;;13.55;100.00;100904.94;4993095;28;20014;-81
2023/07/30 00:39:21;;;;;;;7.45;3.20;;;;;;;13.72;100.00;100930.47;4992784;28;20204;-82
2023/07/30 00:41:46;;;;;;;7.78;3.30;;;;;;;13.57;100.00;100911.69;4992925;28;20479;-81
2023/07/30 00:44:11;;;;;;;11.95;3.40;;;;;;;13.69;100.00;100934.13;4992634;28;20109;-82
2023/07/30 00:46:37;;;;;;;9.27;3.70;;;;;;;13.69;100.00;100928.94;4993158;28;20050;-82
2023/07/30 00:49:02;;;;;;;9.45;3.45;;;;;;;13.71;100.00;100932.25;4994955;28;20030;-82
2023/07/30 00:51:31;;;;;;;8.68;3.22;;;;;;;13.70;100.00;100924.59;4996623;28;20388;-82
2023/07/30 00:53:56;;;;;;;11.52;4.10;;;;;;;13.70;100.00;100933.19;4996390;28;20038;-82
2023/07/30 00:56:22;;;;;;;8.70;3.10;;;;;;;13.61;100.00;100923.50;4996226;28;20109;-82
2023/07/30 00:58:48;;;;;;;11.48;3.35;;;;;;;13.65;100.00;100942.25;4996225;28;20066;-82
2023/07/30 01:01:14;;;;;;;11.60;3.78;;;;;;;13.62;100.00;100940.72;4996341;28;20112;-82
2023/07/30 01:03:39;;;;;;;6.82;3.42;;;;;;;13.59;100.00;100940.13;4996358;28;20054;-81
2023/07/30 01:06:05;;;;;;;10.65;3.65;;;;;;;13.56;100.00;100938.56;4996223;28;20352;-81
2023/07/30 01:08:30;;;;;;;8.77;3.25;;;;;;;13.57;100.00;100942.84;4978647;28;20030;-81
2023/07/30 01:10:57;;;;;;;6.50;3.33;;;;;;;13.56;100.00;100951.53;4995898;28;20030;-82
2023/07/30 01:13:23;;;;;;;10.15;3.28;;;;;;;13.52;100.00;100952.72;4995908;28;20384;-80
2023/07/30 01:15:49;;;;;;;8.98;3.83;;;;;;;13.45;100.00;100947.13;4995791;28;20158;-83
2023/07/30 01:18:14;;;;;;;9.40;3.70;;;;;;;13.44;100.00;100953.25;4995956;28;20030;-83
2023/07/30 01:20:40;;;;;;;10.48;4.10;;;;;;;13.41;100.00;100957.84;4996071;28;20046;-80
2023/07/30 01:23:05;;;;;;;11.70;3.50;;;;;;;13.41;100.00;100963.88;4996036;28;20086;-82
2023/07/30 01:25:35;;;;;;;10.23;3.53;;;;;;;13.40;100.00;100958.78;4995674;28;20026;-83
2023/07/30 01:28:04;;;;;;;10.10;3.70;;;;;;;13.37;100.00;100967.63;4995564;28;20519;-82
2023/07/30 01:30:39;;;;;;;8.93;3.60;;;;;;;13.25;100.00;100949.53;4995443;28;20041;-81
2023/07/30 01:33:05;;;;;;;12.57;3.97;;;;;;;13.33;100.00;100973.13;4995610;28;20026;-82
2023/07/30 01:35:31;;;;;;;11.93;3.65;;;;;;;13.32;100.00;100971.50;4995705;28;20161;-82
2023/07/30 01:37:57;;;;;;;11.50;4.30;;;;;;;13.34;100.00;100975.63;4995669;28;20048;-81
2023/07/30 01:40:23;;;;;;;9.18;4.15;;;;;;;13.30;100.00;100971.59;4995464;28;20026;-82
2023/07/30 01:42:49;;;;;;;10.27;3.67;;;;;;;13.37;100.00;100975.41;4995220;28;20038;-83
2023/07/30 01:45:14;;;;;;;8.88;3.97;;;;;;;13.42;100.00;100982.84;4995215;28;20033;-83
2023/07/30 01:47:39;;;;;;;11.18;4.38;;;;;;;13.42;100.00;100980.25;4995705;28;20022;-80
2023/07/30 01:50:05;;;;;;;12.65;4.60;;;;;;;13.20;100.00;100948.09;4995608;28;20018;-82
2023/07/30 01:52:30;;;;;;;10.90;3.90;;;;;;;13.34;100.00;100964.41;4995494;28;20097;-82
2023/07/30 01:54:58;;;;;;;7.93;3.90;;;;;;;13.42;100.00;100986.28;4995273;28;20049;-83
2023/07/30 01:57:23;;;;;;;10.45;3.67;;;;;;;13.33;100.00;100973.97;4995028;28;20033;-82
2023/07/30 01:59:48;;;;;;;11.25;4.07;;;;;;;13.39;100.00;100991.69;4994163;28;20026;-80
2023/07/30 02:02:14;;;;;;;10.50;3.78;;;;;;;13.39;100.00;100981.31;4995118;28;20472;-80
2023/07/30 02:04:39;;;;;;;8.43;4.07;;;;;;;13.37;100.00;100984.94;4995381;28;20030;-79
2023/07/30 02:07:04;;;;;;;14.18;4.72;;;;;;;13.37;100.00;100985.78;4995063;28;20030;-79
2023/07/30 02:09:30;;;;;;;11.70;4.10;;;;;;;13.44;100.00;100997.38;4995038;28;20034;-79
2023/07/30 02:11:55;;;;;;;11.05;3.85;;;;;;;12.61;100.00;100833.94;4994738;28;20053;-79
2023/07/30 02:14:20;;;;;;;11.38;4.38;;;;;;;13.47;100.00;100967.78;4994788;28;20034;-80
2023/07/30 02:16:46;;;;;;;10.90;4.18;;;;;;;13.48;100.00;100956.47;4994936;28;20077;-81
2023/07/30 02:19:11;;;;;;;11.98;3.97;;;;;;;13.69;100.00;100978.25;4994979;28;20034;-79
2023/07/30 02:21:38;;;;;;;10.02;4.72;;;;;;;13.68;100.00;100965.41;4995022;28;20483;-79
2023/07/30 02:24:04;;;;;;;12.77;4.53;;;;;;;13.65;100.00;100955.22;4994938;28;20061;-80
2023/07/30 02:26:29;;;;;;;13.02;4.65;;;;;;;13.82;100.00;100975.56;4994492;28;20549;-78
2023/07/30 02:28:55;;;;;;;9.93;4.45;;;;;;;13.88;100.00;100976.91;4994440;28;20096;-78
2023/07/30 02:31:20;;;;;;;11.40;4.80;;;;;;;13.78;100.00;100948.19;4994440;28;20049;-79
2023/07/30 02:33:46;;;;;;;18.13;4.90;;;;;;;13.82;100.00;100957.41;4994411;28;20038;-79
2023/07/30 02:36:11;;;;;;;10.15;4.55;;;;;;;13.92;100.00;100965.34;4977147;28;20118;-81
2023/07/30 02:38:36;;;;;;;10.90;4.13;;;;;;;13.90;100.00;100962.84;4994711;28;20034;-80
2023/07/30 02:41:02;;;;;;;12.82;4.93;;;;;;;13.90;100.00;100962.84;4994099;28;20058;-81
2023/07/30 02:43:27;;;;;;;11.07;4.72;;;;;;;13.73;100.00;100930.34;4994370;28;20471;-81
2023/07/30 02:45:52;;;;;;;12.85;5.43;;;;;;;13.93;100.00;100965.22;4994185;28;20034;-82
2023/07/30 02:48:18;;;;;;;13.23;5.63;;;;;;;13.92;100.00;100958.38;4994174;28;20472;-81
2023/07/30 02:50:43;;;;;;;12.57;5.15;;;;;;;13.76;100.00;100926.69;4994274;28;20376;-82
2023/07/30 02:53:08;;;;;;;13.98;5.65;;;;;;;13.82;100.00;100941.00;4994204;28;20033;-82
2023/07/30 02:55:34;;;;;;;12.95;5.15;;;;;;;13.89;100.00;100948.22;4994209;28;20045;-81
2023/07/30 02:57:59;;;;;;;14.57;5.93;;;;;;;13.98;100.00;100965.72;4993968;28;20030;-81
2023/07/30 03:00:24;;;;;;;13.43;5.50;;;;;;;14.00;100.00;100956.03;4994154;28;20026;-81
2023/07/30 03:02:50;;;;;;;15.25;6.88;;;;;;;14.02;100.00;100969.72;4993952;28;20092;-80
2023/07/30 03:05:15;;;;;;;18.63;6.18;;;;;;;14.06;100.00;100971.16;4993942;28;20465;-82
2023/07/30 03:07:40;;;;;;;15.00;6.72;;;;;;;14.10;100.00;100963.94;4994133;28;20026;-82
2023/07/30 03:10:06;;;;;;;15.82;6.90;;;;;;;14.13;100.00;100963.72;4994082;28;20022;-82
2023/07/30 03:12:31;;;;;;;12.75;6.25;;;;;;;14.10;100.00;100953.56;4993517;28;20484;-82
2023/07/30 03:14:57;;;;;;;17.77;7.55;;;;;;;14.17;100.00;100969.53;4993670;28;20026;-79
2023/07/30 03:17:22;;;;;;;16.83;6.80;;;;;;;14.20;100.00;100966.69;4993650;28;20034;-82
2023/07/30 03:19:47;;;;;;;14.40;7.20;;;;;;;14.24;100.00;100970.69;4993693;28;20022;-82
2023/07/30 03:22:13;;;;;;;18.23;7.53;;;;;;;14.26;100.00;100972.25;4993794;28;20072;-81
2023/07/30 03:24:38;;;;;;;15.82;7.00;;;;;;;14.27;100.00;100971.31;4993739;28;20484;-82
2023/07/30 03:27:04;;;;;;;19.33;8.23;;;;;;;14.28;100.00;100974.72;4975778;28;20112;-81
2023/07/30 03:29:29;;;;;;;16.27;6.97;;;;;;;14.31;100.00;100975.31;4993656;28;20034;-82
2023/07/30 03:31:54;;;;;;;18.30;6.90;;;;;;;14.33;100.00;100975.19;4993593;28;20022;-81
2023/07/30 03:34:20;;;;;;;15.95;7.60;;;;;;;14.31;100.00;100972.72;4993296;28;20384;-81
2023/07/30 03:36:45;;;;;;;18.35;7.68;;;;;;;14.32;100.00;100981.31;4993537;28;20438;-81
2023/07/30 03:39:10;;;;;;;16.25;7.72;;;;;;;14.33;100.00;100975.19;4993596;28;20027;-82
2023/07/30 03:41:36;;;;;;;17.23;7.15;;;;;;;14.29;100.00;100969.41;4993283;28;20064;-82
2023/07/30 03:44:01;;;;;;;16.65;7.13;;;;;;;14.33;100.00;100977.78;4993342;28;20042;-81
2023/07/30 03:46:27;;;;;;;18.73;6.70;;;;;;;14.35;100.00;100978.47;4993427;28;20041;-82
2023/07/30 03:48:52;;;;;;;17.17;6.13;;;;;;;14.37;100.00;100986.19;4993150;28;20423;-80
2023/07/30 03:51:17;;;;;;;16.60;6.22;;;;;;;14.37;100.00;100986.19;4993113;28;20472;-81
2023/07/30 03:53:43;;;;;;;16.40;6.53;;;;;;;14.28;100.00;100977.31;4993287;28;20030;-81
2023/07/30 03:56:08;;;;;;;15.18;6.55;;;;;;;14.38;100.00;100999.06;4992947;28;20030;-82
2023/07/30 03:58:34;;;;;;;18.83;7.38;;;;;;;14.40;100.00;100993.75;4993251;28;20038;-81
2023/07/30 04:00:59;;;;;;;15.00;6.43;;;;;;;14.39;100.00;100992.91;4993034;28;20026;-82
2023/07/30 04:03:24;;;;;;;16.80;6.25;;;;;;;14.23;100.00;100969.03;4993146;28;20026;-81
2023/07/30 04:05:50;;;;;;;15.65;7.13;;;;;;;14.39;100.00;100990.31;4993184;28;20486;-82
2023/07/30 04:08:16;;;;;;;21.02;7.68;;;;;;;14.41;100.00;100998.00;4993292;28;20549;-83
2023/07/30 04:10:41;;;;;;;16.42;7.43;;;;;;;14.42;100.00;100997.88;4993424;28;20030;-82
2023/07/30 04:13:07;;;;;;;18.58;7.38;;;;;;;14.42;100.00;100997.88;4992995;28;20109;-82
2023/07/30 04:15:33;;;;;;;17.08;7.45;;;;;;;14.25;100.00;100967.97;4993226;28;20066;-82
2023/07/30 04:17:58;;;;;;;16.63;6.55;;;;;;;14.44;100.00;100993.38;4992911;28;20022;-82
2023/07/30 04:20:24;;;;;;;19.60;7.30;;;;;;;14.47;100.00;101000.16;4992973;28;20030;-82
2023/07/30 04:22:49;;;;;;;15.00;6.88;;;;;;;14.50;100.00;101002.53;4993223;28;20105;-82
2023/07/30 04:25:14;;;;;;;17.08;7.00;;;;;;;14.46;100.00;100990.72;4996956;28;20029;-82
2023/07/30 04:27:40;;;;;;;17.98;6.78;;;;;;;14.12;100.00;100936.09;4996888;28;20076;-83
2023/07/30 04:30:06;;;;;;;15.30;6.45;;;;;;;14.51;100.00;101002.41;4996981;28;20451;-81
2023/07/30 04:32:31;;;;;;;14.00;6.18;;;;;;;14.54;100.00;101011.72;4996805;28;20030;-81
2023/07/30 04:34:57;;;;;;;17.33;6.78;;;;;;;14.54;100.00;101012.53;4996645;28;20034;-82
2023/07/30 04:37:22;;;;;;;17.90;6.60;;;;;;;14.50;100.00;100997.31;4996742;28;20028;-82
2023/07/30 04:39:48;;;;;;;22.98;6.55;;;;;;;14.51;100.00;100998.97;4996738;28;20037;-81
2023/07/30 04:42:14;;;;;;;19.20;6.57;;;;;;;14.33;100.00;100970.00;4996443;28;20368;-80
2023/07/30 04:44:40;;;;;;;18.75;6.63;;;;;;;14.54;100.00;101002.16;4996769;28;20487;-81
2023/07/30 04:47:06;;;;;;;16.92;5.88;;;;;;;14.62;100.00;101015.38;4996414;28;20018;-81
2023/07/30 04:49:31;;;;;;;15.02;6.40;;;;;;;14.68;100.00;101010.69;4996458;28;20031;-82
2023/07/30 04:51:56;;;;;;;16.52;7.00;;;;;;;14.75;100.00;101001.44;4996287;28;20027;-82
2023/07/30 04:54:21;;;;;;;16.05;6.50;;;;;;;14.67;100.00;100973.47;4996441;28;20061;-82
2023/07/30 04:56:47;;;;;;;18.30;6.90;;;;;;;14.85;100.00;100995.44;4976552;28;20039;-82
2023/07/30 04:59:12;;;;;;;13.93;6.50;;;;;;;14.99;100.00;101009.13;4976796;28;20054;-82
2023/07/30 05:01:37;;;;;;;18.63;7.22;;;;;;;14.99;100.00;101012.53;4976631;28;20038;-82
2023/07/30 05:04:03;;;;;;;17.55;6.78;;;;;;;14.81;100.00;100983.59;4976722;28;20030;-83
2023/07/30 05:06:28;;;;;;;15.85;6.50;;;;;;;15.06;100.00;101018.91;4976834;28;20023;-83
2023/07/30 05:08:54;;;;;;;16.77;6.95;;;;;;;15.10;100.00;101022.09;4976563;28;20037;-82
2023/07/30 05:11:20;;;;;;;14.85;6.60;;;;;;;15.18;100.00;101025.75;4976837;28;20102;-82
2023/07/30 05:13:45;;;;;;;19.15;6.93;;;;;;;15.20;100.00;101012.63;4976373;28;20559;-83
2023/07/30 05:16:11;;;;;;;18.70;7.28;;;;;;;15.28;100.00;101025.03;4976724;28;20101;-83
2023/07/30 05:18:36;;;;;;;16.67;7.05;;;;;;;14.55;100.00;100915.47;4976417;28;20023;-83
2023/07/30 05:21:01;;;;;;;19.55;7.30;;;;;;;14.94;100.00;100988.66;4976479;28;20389;-83
2023/07/30 05:23:27;;;;;;;16.70;7.03;;;;;;;15.12;100.00;101023.63;4976403;28;20473;-82
2023/07/30 05:25:52;;;;;;;15.45;6.93;;;;;;;15.09;100.00;101010.88;4976349;28;20030;-83
2023/07/30 05:28:17;;;;;;;16.60;7.20;;;;;;;15.00;100.00;101005.56;4975769;28;20054;-82
2023/07/30 05:30:43;;;;;;;18.50;8.27;;;;;;;15.19;100.00;101048.22;4976071;28;20125;-80
2023/07/30 05:33:08;;;;;;;19.20;7.97;;;;;;;15.21;100.00;101046.31;4976355;28;20066;-81
2023/07/30 05:35:34;;;;;;;20.40;7.47;;;;;;;15.19;100.00;101026.56;4974792;28;20503;-80
2023/07/30 05:38:00;;;;;;;20.00;8.52;;;;;;;15.26;100.00;101035.56;4976146;28;20031;-81
2023/07/30 05:40:25;;;;;;;19.55;8.18;;;;;;;15.29;100.00;101026.66;4976069;28;20408;-81
2023/07/30 05:42:50;;;;;;;22.52;8.20;;;;;;;15.32;100.00;101024.63;4975776;28;20023;-81
2023/07/30 05:45:16;;;;;;;21.33;8.77;;;;;;;15.46;100.00;101034.78;4976058;28;20030;-79
2023/07/30 05:47:41;;;;;;;23.25;8.60;;;;;;;15.54;100.00;101025.56;4976135;28;20022;-82
2023/07/30 05:50:07;;;;;;;20.90;8.15;;;;;;;15.42;100.00;101006.50;4975935;28;20031;-81
2023/07/30 05:52:33;;;;;;;15.32;7.55;;;;;;;15.56;100.00;101028.84;4976015;28;20051;-81
2023/07/30 05:54:58;;;;;;;20.08;7.90;;;;;;;14.58;100.00;100876.25;4975774;28;20073;-82
2023/07/30 05:57:24;;;;;;;19.50;8.68;;;;;;;15.54;100.00;101028.16;4975662;28;20078;-80
2023/07/30 05:59:49;;;;;;;19.10;8.43;;;;;;;15.64;100.00;101027.31;4975665;28;20033;-82
2023/07/30 06:02:15;;;;;;;20.67;8.65;;;;;;;15.78;100.00;101034.00;4975724;28;20065;-82
2023/07/30 06:04:40;;;;;;;18.45;7.97;;;;;;;15.29;100.00;100946.84;4975911;28;20041;-81
2023/07/30 06:07:05;;;;;;;17.75;8.93;;;;;;;15.04;100.00;100882.94;4975623;28;20026;-82
2023/07/30 06:09:31;;;;;;;19.67;8.63;;;;;;;15.97;100.00;101009.88;4975524;28;20319;-81
2023/07/30 06:11:57;;;;;;;23.20;8.68;;;;;;;15.86;100.00;100989.91;4975191;28;20027;-82
2023/07/30 06:14:23;;;;;;;18.00;8.32;;;;;;;16.22;100.00;101045.97;4975570;28;20089;-81
2023/07/30 06:16:48;;;;;;;19.00;8.43;;;;;;;16.25;100.00;101044.88;4975453;28;20023;-81
2023/07/30 06:19:13;;;;;;;22.70;8.57;;;;;;;15.81;100.00;100970.41;4975542;28;20026;-82
2023/07/30 06:21:39;;;;;;;27.63;9.95;;;;;;;16.04;100.00;101003.22;4975560;28;20027;-82
2023/07/30 06:24:04;;;;;;;16.85;7.80;;;;;;;15.68;100.00;100934.97;4975242;28;20535;-81
2023/07/30 06:26:30;;;;;;;19.67;7.72;;;;;;;15.62;100.00;100934.66;4975093;28;20380;-81
2023/07/30 06:28:55;;;;;;;18.73;8.10;;;;;;;16.25;100.00;101037.88;4975007;28;20175;-81
2023/07/30 06:31:20;;;;;;;18.65;8.32;;;;;;;16.16;100.00;101023.03;4975261;28;20019;-82
2023/07/30 06:33:46;;;;;;;18.33;8.27;;;;;;;15.97;100.00;100983.81;4974984;28;20502;-82
2023/07/30 06:36:11;;;;;;;20.60;8.43;;;;;;;16.30;100.00;101040.09;4975228;28;20114;-80
2023/07/30 06:38:36;;;;;;;22.15;8.30;;;;;;;15.88;100.00;100963.75;4974884;28;20023;-80
2023/07/30 06:41:01;;;;;;;16.77;7.95;;;;;;;15.62;100.00;100911.22;4975090;28;20035;-80
2023/07/30 06:43:27;;;;;;;19.40;8.32;;;;;;;16.41;100.00;101013.97;4974986;28;20056;-82
2023/07/30 06:45:53;;;;;;;17.50;7.45;;;;;;;16.58;100.00;101026.41;4973031;28;20057;-77
2023/07/30 06:48:19;;;;;;;16.88;7.50;;;;;;;16.46;100.00;100967.50;4974960;28;20155;-79
2023/07/30 06:50:44;;;;;;;22.58;8.20;;;;;;;17.09;100.00;101035.94;4975060;28;20039;-77
2023/07/30 06:53:09;;;;;;;21.20;6.82;;;;;;;16.28;99.78;100870.03;4974706;28;20424;-81
2023/07/30 06:55:35;;;;;;;19.13;7.40;;;;;;;17.46;99.04;101012.66;4974722;28;20484;-83
2023/07/30 06:58:00;;;;;;;20.13;7.28;;;;;;;17.88;96.69;101043.75;4956780;28;20034;-80
2023/07/30 07:00:26;;;;;;;19.77;6.97;;;;;;;17.53;94.66;100931.16;4974497;28;20428;-82
2023/07/30 07:02:51;;;;;;;16.50;6.45;;;;;;;18.46;92.00;101027.13;4974836;28;20063;-82
2023/07/30 07:05:17;;;;;;;16.45;6.32;;;;;;;18.48;89.74;100973.69;4974695;28;20031;-76
2023/07/30 07:07:42;;;;;;;23.50;6.78;;;;;;;19.00;87.69;101034.22;4974233;28;20035;-81
2023/07/30 07:10:11;;;;;;;20.75;6.03;;;;;;;18.67;87.52;100972.81;4974484;28;20030;-82
2023/07/30 07:12:38;;;;;;;20.88;6.68;;;;;;;18.68;86.29;100940.50;4974477;28;20035;-81
2023/07/30 07:15:04;;;;;;;15.48;5.85;;;;;;;18.95;85.48;100918.69;4974144;28;20476;-79
2023/07/30 07:17:29;;;;;;;19.83;5.95;;;;;;;19.81;83.03;101036.84;4974527;28;20046;-81
2023/07/30 07:19:54;;;;;;;18.90;6.03;;;;;;;19.01;83.14;100933.81;4974227;28;20027;-80
2023/07/30 07:22:20;;;;;;;19.05;6.07;;;;;;;19.04;83.35;100979.78;4974399;28;20027;-78
2023/07/30 07:24:45;;;;;;;22.30;5.95;;;;;;;19.13;85.38;101058.25;4974309;28;20106;-80
2023/07/30 07:27:11;;;;;;;17.40;6.18;;;;;;;17.77;87.15;100901.03;4974299;28;20361;-79
2023/07/30 07:29:36;;;;;;;16.92;5.85;;;;;;;17.60;88.63;100903.50;4973756;28;20054;-81
2023/07/30 07:32:02;;;;;;;15.75;5.75;;;;;;;18.55;88.49;101055.03;4974038;28;20033;-79
2023/07/30 07:34:27;;;;;;;15.32;4.88;;;;;;;18.78;88.78;101060.75;4974168;28;20488;-81
2023/07/30 07:36:53;;;;;;;16.17;5.70;;;;;;;18.19;87.43;100936.41;4974097;28;20376;-80
2023/07/30 07:39:19;;;;;;;14.77;5.10;;;;;;;18.85;87.18;101033.88;4974157;28;20073;-80
2023/07/30 07:41:44;;;;;;;17.10;5.50;;;;;;;18.90;87.57;101057.00;4956797;28;20034;-80
2023/07/30 07:44:10;;;;;;;16.20;6.45;;;;;;;18.24;88.80;100991.69;4973830;28;20018;-80
2023/07/30 07:46:35;;;;;;;17.85;5.20;;;;;;;18.49;88.34;101072.13;4973926;28;20440;-81
2023/07/30 07:49:08;;;;;;;16.77;5.43;;;;;;;18.32;90.14;101070.25;4956243;28;20512;-82
2023/07/30 07:51:34;;;;;;;15.40;5.28;;;;;;;18.10;91.10;101081.03;4973954;28;20128;-80
2023/07/30 07:53:59;;;;;;;18.85;4.68;;;;;;;17.49;91.38;101004.53;4973720;28;20548;-79
2023/07/30 07:56:24;;;;;;;18.27;5.40;;;;;;;17.89;91.15;101063.66;4971990;28;20553;-78
2023/07/30 07:58:50;;;;;;;21.42;5.50;;;;;;;17.88;92.48;101046.34;4973717;28;20023;-80
2023/07/30 08:01:15;;;;;;;15.65;5.15;;;;;;;18.17;92.76;101072.47;4974109;28;20102;-80
2023/07/30 08:03:40;;;;;;;17.38;4.57;;;;;;;18.30;91.28;101069.56;4973818;28;20109;-79
2023/07/30 08:06:06;;;;;;;17.45;5.07;;;;;;;18.36;90.41;101071.59;4973820;28;20027;-81
2023/07/30 08:08:31;;;;;;;18.25;4.97;;;;;;;18.46;89.83;101075.00;4973750;28;20034;-79
2023/07/30 08:10:57;;;;;;;13.55;4.40;;;;;;;18.27;88.36;101039.28;4973697;28;20443;-80
2023/07/30 08:13:22;;;;;;;18.83;5.10;;;;;;;18.19;89.29;101040.94;4973561;28;20532;-82
2023/07/30 08:15:48;;;;;;;17.98;5.28;;;;;;;18.38;88.24;101084.53;4973373;28;20493;-79
2023/07/30 08:18:13;;;;;;;19.63;5.22;;;;;;;18.23;89.50;101050.19;4973779;28;20034;-80
2023/07/30 08:20:38;;;;;;;15.57;4.30;;;;;;;18.45;89.31;101091.69;4973608;28;20081;-81
2023/07/30 08:23:04;;;;;;;16.45;4.32;;;;;;;18.43;88.87;101054.38;4973560;28;20127;-81
2023/07/30 08:25:29;;;;;;;16.33;4.57;;;;;;;18.91;86.78;101093.50;4973503;28;20026;-79
2023/07/30 08:27:54;;;;;;;15.05;4.28;;;;;;;19.12;84.19;101089.81;4973274;28;20093;-81
2023/07/30 08:30:20;;;;;;;14.50;4.15;;;;;;;19.32;84.56;101093.97;4973396;28;20485;-79
2023/07/30 08:32:45;;;;;;;16.10;4.60;;;;;;;19.07;84.48;101069.31;4973415;28;20500;-81
2023/07/30 08:35:11;;;;;;;18.35;4.57;;;;;;;18.66;85.77;101056.69;4973552;28;20026;-82
2023/07/30 08:37:37;;;;;;;14.10;5.00;;;;;;;18.52;89.10;101082.31;4973448;28;20105;-82
2023/07/30 08:40:03;;;;;;;15.68;4.85;;;;;;;18.22;90.68;101085.94;4973475;28;20119;-81
2023/07/30 08:42:28;;;;;;;15.63;4.88;;;;;;;18.18;92.34;101074.09;4973500;28;20030;-81
2023/07/30 08:44:54;;;;;;;20.02;5.93;;;;;;;17.74;91.22;101025.88;4973115;28;20387;-82
2023/07/30 08:47:19;;;;;;;13.10;4.72;;;;;;;18.06;89.45;101089.13;4973160;28;20030;-81
2023/07/30 08:49:44;;;;;;;17.77;4.72;;;;;;;17.98;90.29;101059.41;4973373;28;20023;-81
2023/07/30 08:52:10;;;;;;;18.05;4.53;;;;;;;18.27;90.36;101082.91;4973638;28;20027;-82
2023/07/30 08:54:38;;;;;;;17.52;4.78;;;;;;;18.48;89.63;101090.56;4973442;28;20030;-82
2023/07/30 08:57:04;;;;;;;13.55;4.22;;;;;;;18.33;85.02;101051.81;4973289;28;20484;-81
2023/07/30 08:59:41;;;;;;;15.38;4.45;;;;;;;18.66;86.87;101088.06;4973045;28;20107;-83
2023/07/30 09:02:16;;;;;;;18.02;4.32;;;;;;;18.84;87.00;101087.19;4973028;28;20041;-81
2023/07/30 09:04:47;;;;;;;15.60;4.60;;;;;;;19.00;85.55;101083.97;4973257;28;20455;-77
2023/07/30 09:07:16;;;;;;;18.85;4.20;;;;;;;18.75;84.66;101033.09;4973492;28;20022;-80
2023/07/30 09:09:43;;;;;;;14.27;3.65;;;;;;;19.05;81.08;101076.47;4974485;28;20031;-82
2023/07/30 09:12:15;;;;;;;12.68;3.40;;;;;;;19.33;80.75;101105.28;4976772;28;20050;-83
2023/07/30 09:14:51;;;;;;;13.05;3.33;;;;;;;19.71;79.94;101107.69;4976360;28;20089;-82
2023/07/30 09:17:18;;;;;;;7.97;2.92;;;;;;;19.99;79.78;101097.94;4976623;28;20085;-82
2023/07/30 09:19:43;;;;;;;13.70;3.33;;;;;;;19.52;78.15;101017.91;4976647;28;20472;-80
2023/07/30 09:22:09;;;;;;;14.13;3.92;;;;;;;19.67;77.78;101032.16;4976632;28;20050;-80
2023/07/30 09:24:34;;;;;;;10.85;3.70;;;;;;;20.15;78.38;101078.88;4976492;28;20023;-79
2023/07/30 09:27:03;;;;;;;13.82;3.97;;;;;;;20.51;78.47;101094.59;4976369;28;20058;-79
2023/07/30 09:29:28;;;;;;;13.95;3.67;;;;;;;20.76;77.56;101064.88;4976177;28;20129;-80
2023/07/30 09:31:55;;;;;;;12.65;3.20;;;;;;;21.11;74.88;101063.03;4976351;28;20115;-80
2023/07/30 09:34:22;;;;;;;11.32;3.42;;;;;;;21.28;73.59;101069.19;4975339;28;20027;-80
2023/07/30 09:36:52;;;;;;;15.82;3.85;;;;;;;21.19;73.88;101052.56;4976699;28;20089;-82
2023/07/30 09:39:26;;;;;;;11.02;3.63;;;;;;;21.33;70.94;101083.47;4973613;28;20038;-78
2023/07/30 09:41:58;;;;;;;13.82;3.97;;;;;;;21.44;72.40;101077.97;4975892;28;20058;-82
2023/07/30 09:44:24;;;;;;;11.88;3.33;;;;;;;21.29;69.96;101068.22;4976205;28;20019;-80
2023/07/30 09:46:51;;;;;;;11.55;3.58;;;;;;;20.53;69.26;101040.16;4975920;28;20042;-81
2023/07/30 09:49:17;;;;;;;12.20;3.80;;;;;;;19.86;74.55;101065.22;4976027;28;20062;-80
2023/07/30 09:51:43;;;;;;;14.50;4.32;;;;;;;19.55;79.70;101104.84;4975979;28;20030;-81
2023/07/30 09:54:11;;;;;;;12.77;3.83;;;;;;;18.30;81.96;100968.44;4975813;28;20030;-81
2023/07/30 09:56:38;;;;;;;13.70;3.92;;;;;;;18.97;81.73;101097.31;4974597;28;20038;-81
2023/07/30 09:59:08;;;;;;;12.23;3.53;;;;;;;18.80;81.78;101077.16;4975709;28;20039;-81
2023/07/30 10:01:49;;;;;;;11.50;3.57;;;;;;;18.94;80.19;101108.09;4975844;28;20033;-81
2023/07/30 10:04:15;;;;;;;10.00;3.42;;;;;;;18.86;81.51;101111.41;4975904;28;20274;-80
2023/07/30 10:07:01;;;;;;;12.85;3.75;;;;;;;18.19;80.50;101033.97;4975770;28;20023;-80
2023/07/30 10:09:30;;;;;;;12.68;4.20;;;;;;;18.08;89.60;101088.16;4975539;28;20404;-79
2023/07/30 10:11:58;;;;;;;9.82;3.17;;;;;;;17.29;92.95;101093.41;4974240;28;20034;-80
2023/07/30 10:14:25;;;;;;;9.00;3.10;;;;;;;16.94;100.00;101146.84;4973894;28;20061;-80
2023/07/30 10:16:55;;;;;;;9.25;3.53;;;;;;;16.58;100.00;101141.13;4976086;28;20030;-79
2023/07/30 10:19:28;;;;;;;10.65;4.43;;;;;;;16.41;100.00;101131.25;4975771;28;20033;-79
2023/07/30 10:22:15;;;;;;;12.98;5.40;;;;;;;16.39;100.00;101117.53;4974311;28;20034;-78
2023/07/30 10:24:54;;;;;;;13.88;4.85;;;;;;;16.32;100.00;101112.00;4975110;28;20023;-78
2023/07/30 10:27:24;;;;;;;9.10;3.80;;;;;;;16.45;100.00;101163.13;4974451;28;20034;-77
2023/07/30 10:30:08;;;;;;;7.95;3.80;;;;;;;15.44;100.00;101010.66;4975861;28;20492;-78
2023/07/30 10:32:58;;;;;;;8.95;3.00;;;;;;;16.04;100.00;101104.81;4975117;28;20507;-77
2023/07/30 10:35:46;;;;;;;8.98;2.97;;;;;;;16.44;100.00;101162.31;4975142;28;20030;-78
2023/07/30 10:38:27;;;;;;;7.13;2.67;;;;;;;16.32;100.00;101132.00;4957861;28;20030;-77
2023/07/30 10:41:20;;;;;;;12.73;3.00;;;;;;;16.72;100.00;101155.66;4974899;28;20027;-77
2023/07/30 10:43:50;;;;;;;7.22;2.92;;;;;;;16.91;100.00;101162.75;4877908;29;20125;-76
2023/07/30 10:46:18;;;;;;;7.13;3.00;;;;;;;17.26;100.00;101153.72;4877853;29;20048;-77
2023/07/30 10:48:46;;;;;;;12.07;3.72;;;;;;;16.67;100.00;101022.19;4877716;29;20088;-76
2023/07/30 10:51:14;;;;;;;11.07;3.55;;;;;;;17.42;100.00;101078.34;4877619;29;20516;-79
2023/07/30 10:53:42;;;;;;;12.27;3.60;;;;;;;17.75;99.80;101082.38;4877484;29;20051;-77
2023/07/30 10:56:09;;;;;;;9.52;3.42;;;;;;;18.45;100.00;101164.91;4877799;29;20044;-78
2023/07/30 10:58:36;;;;;;;10.35;2.63;;;;;;;17.81;96.97;101066.19;4877699;29;20120;-77
2023/07/30 11:01:06;;;;;;;10.20;3.70;;;;;;;17.49;98.83;100993.25;4877505;29;20037;-76
2023/07/30 11:03:32;;;;;;;8.55;2.95;;;;;;;18.48;97.84;101142.88;4877521;29;20116;-77
2023/07/30 11:05:58;;;;;;;11.27;3.50;;;;;;;18.50;100.00;101115.63;4877406;29;20033;-79
2023/07/30 11:08:33;;;;;;;10.75;3.13;;;;;;;18.38;99.48;101093.19;4877507;29;20108;-80